sensor_id;sensor_type;location;lat;lon;timestamp;P1;durP1;ratioP1;P2;durP2;ratioP2
60318;SDS011;46163;52.306;5.634;2023-08-08T00:00:58;2.45;;;2.10;;
60318;SDS011;46163;52.306;5.634;2023-08-08T00:03:24;2.47;;;2.13;;
60318;SDS011;46163;52.306;5.634;2023-08-08T00:05:52;4.07;;;2.42;;
60318;SDS011;46163;52.306;5.634;2023-08-08T00:08:17;4.78;;;2.53;;
60318;SDS011;46163;52.306;5.634;2023-08-08T00:10:43;2.95;;;2.45;;
60318;SDS011;46163;52.306;5.634;2023-08-08T00:13:08;3.20;;;2.22;;
60318;SDS011;46163;52.306;5.634;2023-08-08T00:15:33;3.65;;;2.38;;
60318;SDS011;46163;52.306;5.634;2023-08-08T00:17:59;2.35;;;2.05;;
60318;SDS011;46163;52.306;5.634;2023-08-08T00:20:24;6.35;;;2.70;;
60318;SDS011;46163;52.306;5.634;2023-08-08T00:22:50;6.85;;;2.67;;
60318;SDS011;46163;52.306;5.634;2023-08-08T00:25:15;9.35;;;2.60;;
60318;SDS011;46163;52.306;5.634;2023-08-08T00:27:45;5.07;;;2.75;;
60318;SDS011;46163;52.306;5.634;2023-08-08T00:30:11;3.28;;;2.67;;
60318;SDS011;46163;52.306;5.634;2023-08-08T00:32:38;3.72;;;2.88;;
60318;SDS011;46163;52.306;5.634;2023-08-08T00:35:06;5.70;;;2.67;;
60318;SDS011;46163;52.306;5.634;2023-08-08T00:37:32;3.67;;;2.72;;
60318;SDS011;46163;52.306;5.634;2023-08-08T00:39:57;4.35;;;3.00;;
60318;SDS011;46163;52.306;5.634;2023-08-08T00:42:23;3.10;;;2.78;;
60318;SDS011;46163;52.306;5.634;2023-08-08T00:44:48;2.92;;;2.50;;
60318;SDS011;46163;52.306;5.634;2023-08-08T00:47:14;7.13;;;2.90;;
60318;SDS011;46163;52.306;5.634;2023-08-08T00:49:39;5.13;;;2.83;;
60318;SDS011;46163;52.306;5.634;2023-08-08T00:52:08;3.00;;;2.70;;
60318;SDS011;46163;52.306;5.634;2023-08-08T00:54:33;5.93;;;2.63;;
60318;SDS011;46163;52.306;5.634;2023-08-08T00:56:59;9.65;;;3.05;;
60318;SDS011;46163;52.306;5.634;2023-08-08T00:59:24;5.70;;;2.75;;
60318;SDS011;46163;52.306;5.634;2023-08-08T01:01:50;7.35;;;2.90;;
60318;SDS011;46163;52.306;5.634;2023-08-08T01:04:18;4.75;;;3.00;;
60318;SDS011;46163;52.306;5.634;2023-08-08T01:06:50;5.68;;;2.75;;
60318;SDS011;46163;52.306;5.634;2023-08-08T01:09:33;4.53;;;3.33;;
60318;SDS011;46163;52.306;5.634;2023-08-08T01:12:00;7.55;;;2.60;;
60318;SDS011;46163;52.306;5.634;2023-08-08T01:14:28;6.93;;;3.50;;
60318;SDS011;46163;52.306;5.634;2023-08-08T01:17:00;7.47;;;3.00;;
60318;SDS011;46163;52.306;5.634;2023-08-08T01:19:27;4.78;;;2.70;;
60318;SDS011;46163;52.306;5.634;2023-08-08T01:21:57;9.52;;;3.05;;
60318;SDS011;46163;52.306;5.634;2023-08-08T01:24:28;5.65;;;3.10;;
60318;SDS011;46163;52.306;5.634;2023-08-08T01:27:01;7.63;;;3.13;;
60318;SDS011;46163;52.306;5.634;2023-08-08T01:29:27;6.88;;;2.92;;
60318;SDS011;46163;52.306;5.634;2023-08-08T01:31:52;5.28;;;2.55;;
60318;SDS011;46163;52.306;5.634;2023-08-08T01:34:18;4.78;;;2.80;;
60318;SDS011;46163;52.306;5.634;2023-08-08T01:36:54;9.15;;;3.55;;
60318;SDS011;46163;52.306;5.634;2023-08-08T01:39:25;5.40;;;3.58;;
60318;SDS011;46163;52.306;5.634;2023-08-08T01:41:52;3.63;;;2.58;;
60318;SDS011;46163;52.306;5.634;2023-08-08T01:46:46;4.13;;;2.33;;
60318;SDS011;46163;52.306;5.634;2023-08-08T01:49:12;4.35;;;2.85;;
60318;SDS011;46163;52.306;5.634;2023-08-08T01:51:37;3.05;;;2.58;;
60318;SDS011;46163;52.306;5.634;2023-08-08T01:54:03;4.82;;;2.67;;
60318;SDS011;46163;52.306;5.634;2023-08-08T01:56:28;4.55;;;2.88;;
60318;SDS011;46163;52.306;5.634;2023-08-08T01:58:54;4.30;;;2.85;;
60318;SDS011;46163;52.306;5.634;2023-08-08T02:01:19;5.75;;;2.85;;
60318;SDS011;46163;52.306;5.634;2023-08-08T02:03:45;3.65;;;2.80;;
60318;SDS011;46163;52.306;5.634;2023-08-08T02:06:10;8.40;;;3.00;;
60318;SDS011;46163;52.306;5.634;2023-08-08T02:08:38;20.83;;;2.78;;
60318;SDS011;46163;52.306;5.634;2023-08-08T02:11:04;7.25;;;3.05;;
60318;SDS011;46163;52.306;5.634;2023-08-08T02:13:29;4.30;;;2.72;;
60318;SDS011;46163;52.306;5.634;2023-08-08T02:15:55;3.95;;;2.70;;
60318;SDS011;46163;52.306;5.634;2023-08-08T02:18:20;10.02;;;2.83;;
60318;SDS011;46163;52.306;5.634;2023-08-08T02:20:46;4.07;;;2.97;;
60318;SDS011;46163;52.306;5.634;2023-08-08T02:23:11;4.47;;;2.80;;
60318;SDS011;46163;52.306;5.634;2023-08-08T02:25:37;5.35;;;3.00;;
60318;SDS011;46163;52.306;5.634;2023-08-08T02:28:03;4.20;;;2.90;;
60318;SDS011;46163;52.306;5.634;2023-08-08T02:30:29;9.02;;;2.80;;
60318;SDS011;46163;52.306;5.634;2023-08-08T02:32:54;3.17;;;2.67;;
60318;SDS011;46163;52.306;5.634;2023-08-08T02:35:20;5.70;;;3.13;;
60318;SDS011;46163;52.306;5.634;2023-08-08T02:37:45;5.07;;;3.03;;
60318;SDS011;46163;52.306;5.634;2023-08-08T02:40:10;4.05;;;3.00;;
60318;SDS011;46163;52.306;5.634;2023-08-08T02:42:36;5.40;;;2.78;;
60318;SDS011;46163;52.306;5.634;2023-08-08T02:45:01;5.88;;;2.90;;
60318;SDS011;46163;52.306;5.634;2023-08-08T02:47:27;4.32;;;2.60;;
60318;SDS011;46163;52.306;5.634;2023-08-08T02:49:52;7.28;;;2.80;;
60318;SDS011;46163;52.306;5.634;2023-08-08T02:52:18;3.75;;;2.47;;
60318;SDS011;46163;52.306;5.634;2023-08-08T02:54:43;5.32;;;2.42;;
60318;SDS011;46163;52.306;5.634;2023-08-08T02:57:09;5.00;;;2.53;;
60318;SDS011;46163;52.306;5.634;2023-08-08T02:59:37;6.53;;;2.78;;
60318;SDS011;46163;52.306;5.634;2023-08-08T03:02:03;5.43;;;2.50;;
60318;SDS011;46163;52.306;5.634;2023-08-08T03:04:29;4.28;;;2.47;;
60318;SDS011;46163;52.306;5.634;2023-08-08T03:06:55;3.10;;;2.40;;
60318;SDS011;46163;52.306;5.634;2023-08-08T03:09:21;5.32;;;2.70;;
60318;SDS011;46163;52.306;5.634;2023-08-08T03:11:46;11.07;;;2.88;;
60318;SDS011;46163;52.306;5.634;2023-08-08T03:14:12;4.55;;;2.83;;
60318;SDS011;46163;52.306;5.634;2023-08-08T03:16:37;6.30;;;2.67;;
60318;SDS011;46163;52.306;5.634;2023-08-08T03:19:07;2.88;;;2.30;;
60318;SDS011;46163;52.306;5.634;2023-08-08T03:21:33;3.92;;;2.72;;
60318;SDS011;46163;52.306;5.634;2023-08-08T03:23:58;4.28;;;2.58;;
60318;SDS011;46163;52.306;5.634;2023-08-08T03:26:24;4.43;;;2.50;;
60318;SDS011;46163;52.306;5.634;2023-08-08T03:28:49;3.47;;;1.98;;
60318;SDS011;46163;52.306;5.634;2023-08-08T03:31:18;3.22;;;2.85;;
60318;SDS011;46163;52.306;5.634;2023-08-08T03:33:43;5.22;;;2.75;;
60318;SDS011;46163;52.306;5.634;2023-08-08T03:36:09;3.08;;;2.70;;
60318;SDS011;46163;52.306;5.634;2023-08-08T03:38:35;7.55;;;2.55;;
60318;SDS011;46163;52.306;5.634;2023-08-08T03:41:09;3.55;;;2.40;;
60318;SDS011;46163;52.306;5.634;2023-08-08T03:43:37;6.15;;;2.92;;
60318;SDS011;46163;52.306;5.634;2023-08-08T03:46:03;2.67;;;2.22;;
60318;SDS011;46163;52.306;5.634;2023-08-08T03:48:31;2.60;;;2.38;;
60318;SDS011;46163;52.306;5.634;2023-08-08T03:50:59;5.25;;;2.50;;
60318;SDS011;46163;52.306;5.634;2023-08-08T03:53:25;7.65;;;2.88;;
60318;SDS011;46163;52.306;5.634;2023-08-08T03:55:50;3.38;;;2.15;;
60318;SDS011;46163;52.306;5.634;2023-08-08T03:58:16;7.68;;;2.50;;
60318;SDS011;46163;52.306;5.634;2023-08-08T04:00:43;5.78;;;2.17;;
60318;SDS011;46163;52.306;5.634;2023-08-08T04:05:40;2.25;;;2.03;;
60318;SDS011;46163;52.306;5.634;2023-08-08T04:08:11;2.47;;;2.10;;
60318;SDS011;46163;52.306;5.634;2023-08-08T04:10:38;7.70;;;2.20;;
60318;SDS011;46163;52.306;5.634;2023-08-08T04:13:03;5.28;;;2.75;;
60318;SDS011;46163;52.306;5.634;2023-08-08T04:15:29;2.40;;;1.80;;
60318;SDS011;46163;52.306;5.634;2023-08-08T04:17:54;4.70;;;2.80;;
60318;SDS011;46163;52.306;5.634;2023-08-08T04:20:20;3.10;;;2.20;;
60318;SDS011;46163;52.306;5.634;2023-08-08T04:22:45;3.53;;;2.35;;
60318;SDS011;46163;52.306;5.634;2023-08-08T04:25:14;5.65;;;2.30;;
60318;SDS011;46163;52.306;5.634;2023-08-08T04:27:42;7.13;;;1.90;;
60318;SDS011;46163;52.306;5.634;2023-08-08T04:30:08;2.55;;;2.03;;
60318;SDS011;46163;52.306;5.634;2023-08-08T04:32:34;2.38;;;2.15;;
60318;SDS011;46163;52.306;5.634;2023-08-08T04:34:59;2.00;;;1.88;;
60318;SDS011;46163;52.306;5.634;2023-08-08T04:37:27;5.35;;;2.40;;
60318;SDS011;46163;52.306;5.634;2023-08-08T04:39:52;4.05;;;2.85;;
60318;SDS011;46163;52.306;5.634;2023-08-08T04:42:18;5.07;;;2.25;;
60318;SDS011;46163;52.306;5.634;2023-08-08T04:44:46;2.35;;;2.10;;
60318;SDS011;46163;52.306;5.634;2023-08-08T04:47:11;3.00;;;2.40;;
60318;SDS011;46163;52.306;5.634;2023-08-08T04:49:36;4.13;;;2.10;;
60318;SDS011;46163;52.306;5.634;2023-08-08T04:52:12;3.00;;;2.00;;
60318;SDS011;46163;52.306;5.634;2023-08-08T04:54:37;2.67;;;2.15;;
60318;SDS011;46163;52.306;5.634;2023-08-08T04:57:02;5.18;;;2.55;;
60318;SDS011;46163;52.306;5.634;2023-08-08T04:59:31;4.47;;;2.45;;
60318;SDS011;46163;52.306;5.634;2023-08-08T05:01:57;1.83;;;1.73;;
60318;SDS011;46163;52.306;5.634;2023-08-08T05:04:22;4.25;;;2.00;;
60318;SDS011;46163;52.306;5.634;2023-08-08T05:06:48;2.38;;;1.92;;
60318;SDS011;46163;52.306;5.634;2023-08-08T05:09:13;9.07;;;2.58;;
60318;SDS011;46163;52.306;5.634;2023-08-08T05:11:39;2.38;;;2.00;;
60318;SDS011;46163;52.306;5.634;2023-08-08T05:14:04;4.15;;;2.33;;
60318;SDS011;46163;52.306;5.634;2023-08-08T05:16:32;3.83;;;2.25;;
60318;SDS011;46163;52.306;5.634;2023-08-08T05:18:58;6.60;;;1.90;;
60318;SDS011;46163;52.306;5.634;2023-08-08T05:21:23;3.05;;;1.80;;
60318;SDS011;46163;52.306;5.634;2023-08-08T05:23:49;3.90;;;1.92;;
60318;SDS011;46163;52.306;5.634;2023-08-08T05:26:15;2.72;;;1.70;;
60318;SDS011;46163;52.306;5.634;2023-08-08T05:28:41;1.83;;;1.73;;
60318;SDS011;46163;52.306;5.634;2023-08-08T05:31:06;2.55;;;1.98;;
60318;SDS011;46163;52.306;5.634;2023-08-08T05:33:32;2.05;;;1.83;;
60318;SDS011;46163;52.306;5.634;2023-08-08T05:35:58;1.98;;;1.73;;
60318;SDS011;46163;52.306;5.634;2023-08-08T05:38:24;5.22;;;1.88;;
60318;SDS011;46163;52.306;5.634;2023-08-08T05:40:49;1.88;;;1.77;;
60318;SDS011;46163;52.306;5.634;2023-08-08T05:43:15;6.38;;;2.13;;
60318;SDS011;46163;52.306;5.634;2023-08-08T05:48:09;2.10;;;1.83;;
60318;SDS011;46163;52.306;5.634;2023-08-08T05:50:37;1.65;;;1.55;;
60318;SDS011;46163;52.306;5.634;2023-08-08T05:53:07;1.70;;;1.60;;
60318;SDS011;46163;52.306;5.634;2023-08-08T05:55:33;2.30;;;1.70;;
60318;SDS011;46163;52.306;5.634;2023-08-08T05:57:58;2.15;;;1.73;;
60318;SDS011;46163;52.306;5.634;2023-08-08T06:00:24;2.80;;;1.85;;
60318;SDS011;46163;52.306;5.634;2023-08-08T06:02:49;1.58;;;1.48;;
60318;SDS011;46163;52.306;5.634;2023-08-08T06:05:19;4.10;;;1.95;;
60318;SDS011;46163;52.306;5.634;2023-08-08T06:07:49;2.78;;;1.90;;
60318;SDS011;46163;52.306;5.634;2023-08-08T06:10:15;2.22;;;1.73;;
60318;SDS011;46163;52.306;5.634;2023-08-08T06:12:40;2.90;;;1.73;;
60318;SDS011;46163;52.306;5.634;2023-08-08T06:15:06;2.78;;;1.60;;
60318;SDS011;46163;52.306;5.634;2023-08-08T06:17:33;1.38;;;1.33;;
60318;SDS011;46163;52.306;5.634;2023-08-08T06:19:59;5.10;;;1.40;;
60318;SDS011;46163;52.306;5.634;2023-08-08T06:22:24;6.72;;;2.15;;
60318;SDS011;46163;52.306;5.634;2023-08-08T06:24:50;1.73;;;1.48;;
60318;SDS011;46163;52.306;5.634;2023-08-08T06:27:20;2.92;;;1.65;;
60318;SDS011;46163;52.306;5.634;2023-08-08T06:29:45;1.92;;;1.60;;
60318;SDS011;46163;52.306;5.634;2023-08-08T06:32:13;1.77;;;1.30;;
60318;SDS011;46163;52.306;5.634;2023-08-08T06:34:41;4.57;;;1.77;;
60318;SDS011;46163;52.306;5.634;2023-08-08T06:37:10;3.50;;;1.88;;
60318;SDS011;46163;52.306;5.634;2023-08-08T06:39:35;2.78;;;1.55;;
60318;SDS011;46163;52.306;5.634;2023-08-08T06:42:03;4.57;;;1.30;;
60318;SDS011;46163;52.306;5.634;2023-08-08T06:44:28;4.32;;;1.77;;
60318;SDS011;46163;52.306;5.634;2023-08-08T06:46:54;4.50;;;1.73;;
60318;SDS011;46163;52.306;5.634;2023-08-08T06:49:22;1.50;;;1.40;;
60318;SDS011;46163;52.306;5.634;2023-08-08T06:51:47;1.67;;;1.55;;
60318;SDS011;46163;52.306;5.634;2023-08-08T06:54:12;1.67;;;1.58;;
60318;SDS011;46163;52.306;5.634;2023-08-08T06:56:38;6.35;;;1.45;;
60318;SDS011;46163;52.306;5.634;2023-08-08T06:59:03;1.17;;;1.08;;
60318;SDS011;46163;52.306;5.634;2023-08-08T07:01:29;3.78;;;1.30;;
60318;SDS011;46163;52.306;5.634;2023-08-08T07:03:54;1.58;;;1.38;;
60318;SDS011;46163;52.306;5.634;2023-08-08T07:06:20;1.30;;;1.20;;
60318;SDS011;46163;52.306;5.634;2023-08-08T07:08:45;2.25;;;1.52;;
60318;SDS011;46163;52.306;5.634;2023-08-08T07:11:11;1.95;;;1.33;;
60318;SDS011;46163;52.306;5.634;2023-08-08T07:13:36;6.47;;;1.38;;
60318;SDS011;46163;52.306;5.634;2023-08-08T07:16:01;6.03;;;1.25;;
60318;SDS011;46163;52.306;5.634;2023-08-08T07:18:27;6.72;;;1.50;;
60318;SDS011;46163;52.306;5.634;2023-08-08T07:20:52;1.95;;;1.23;;
60318;SDS011;46163;52.306;5.634;2023-08-08T07:23:18;1.95;;;1.25;;
60318;SDS011;46163;52.306;5.634;2023-08-08T07:25:44;2.47;;;1.20;;
60318;SDS011;46163;52.306;5.634;2023-08-08T07:28:10;1.13;;;1.08;;
60318;SDS011;46163;52.306;5.634;2023-08-08T07:30:36;4.55;;;1.30;;
60318;SDS011;46163;52.306;5.634;2023-08-08T07:33:01;4.65;;;1.77;;
60318;SDS011;46163;52.306;5.634;2023-08-08T07:35:29;1.33;;;1.10;;
60318;SDS011;46163;52.306;5.634;2023-08-08T07:37:54;1.38;;;1.02;;
60318;SDS011;46163;52.306;5.634;2023-08-08T07:40:20;1.50;;;1.13;;
60318;SDS011;46163;52.306;5.634;2023-08-08T07:42:47;5.88;;;1.23;;
60318;SDS011;46163;52.306;5.634;2023-08-08T07:45:13;2.47;;;1.15;;
60318;SDS011;46163;52.306;5.634;2023-08-08T07:47:41;1.60;;;1.00;;
60318;SDS011;46163;52.306;5.634;2023-08-08T07:50:07;0.73;;;0.73;;
60318;SDS011;46163;52.306;5.634;2023-08-08T07:52:36;1.70;;;0.98;;
60318;SDS011;46163;52.306;5.634;2023-08-08T07:55:03;1.88;;;1.08;;
60318;SDS011;46163;52.306;5.634;2023-08-08T07:57:30;1.85;;;1.10;;
60318;SDS011;46163;52.306;5.634;2023-08-08T07:59:56;1.60;;;1.20;;
60318;SDS011;46163;52.306;5.634;2023-08-08T08:02:22;2.03;;;1.00;;
60318;SDS011;46163;52.306;5.634;2023-08-08T08:04:50;1.08;;;0.70;;
60318;SDS011;46163;52.306;5.634;2023-08-08T08:07:16;2.30;;;0.80;;
60318;SDS011;46163;52.306;5.634;2023-08-08T08:09:41;2.10;;;0.90;;
60318;SDS011;46163;52.306;5.634;2023-08-08T08:12:07;1.67;;;0.95;;
60318;SDS011;46163;52.306;5.634;2023-08-08T08:14:33;0.73;;;0.73;;
60318;SDS011;46163;52.306;5.634;2023-08-08T08:17:00;1.20;;;1.00;;
60318;SDS011;46163;52.306;5.634;2023-08-08T08:19:25;1.17;;;1.00;;
60318;SDS011;46163;52.306;5.634;2023-08-08T08:24:21;1.83;;;1.02;;
60318;SDS011;46163;52.306;5.634;2023-08-08T08:26:48;1.10;;;0.98;;
60318;SDS011;46163;52.306;5.634;2023-08-08T08:29:13;5.10;;;1.20;;
60318;SDS011;46163;52.306;5.634;2023-08-08T08:31:39;0.63;;;0.50;;
60318;SDS011;46163;52.306;5.634;2023-08-08T08:34:04;1.65;;;0.90;;
60318;SDS011;46163;52.306;5.634;2023-08-08T08:36:30;5.95;;;1.23;;
60318;SDS011;46163;52.306;5.634;2023-08-08T08:38:55;2.15;;;0.90;;
60318;SDS011;46163;52.306;5.634;2023-08-08T08:41:23;1.25;;;0.90;;
60318;SDS011;46163;52.306;5.634;2023-08-08T08:43:54;4.47;;;1.30;;
60318;SDS011;46163;52.306;5.634;2023-08-08T08:46:20;0.95;;;0.82;;
60318;SDS011;46163;52.306;5.634;2023-08-08T08:48:49;3.10;;;1.02;;
60318;SDS011;46163;52.306;5.634;2023-08-08T08:51:17;2.08;;;0.98;;
60318;SDS011;46163;52.306;5.634;2023-08-08T08:53:45;2.45;;;1.15;;
60318;SDS011;46163;52.306;5.634;2023-08-08T08:56:19;1.38;;;0.80;;
60318;SDS011;46163;52.306;5.634;2023-08-08T08:58:45;0.85;;;0.70;;
60318;SDS011;46163;52.306;5.634;2023-08-08T09:01:11;0.70;;;0.70;;
60318;SDS011;46163;52.306;5.634;2023-08-08T09:03:36;1.50;;;1.23;;
60318;SDS011;46163;52.306;5.634;2023-08-08T09:06:02;1.92;;;1.08;;
60318;SDS011;46163;52.306;5.634;2023-08-08T09:08:29;4.05;;;1.02;;
60318;SDS011;46163;52.306;5.634;2023-08-08T09:10:54;1.15;;;0.80;;
60318;SDS011;46163;52.306;5.634;2023-08-08T09:13:21;1.50;;;0.77;;
60318;SDS011;46163;52.306;5.634;2023-08-08T09:15:50;1.00;;;0.70;;
60318;SDS011;46163;52.306;5.634;2023-08-08T09:18:16;2.22;;;0.95;;
60318;SDS011;46163;52.306;5.634;2023-08-08T09:20:41;1.25;;;1.15;;
60318;SDS011;46163;52.306;5.634;2023-08-08T09:23:15;1.35;;;0.95;;
60318;SDS011;46163;52.306;5.634;2023-08-08T09:25:43;2.00;;;0.68;;
60318;SDS011;46163;52.306;5.634;2023-08-08T09:28:08;0.73;;;0.65;;
60318;SDS011;46163;52.306;5.634;2023-08-08T09:30:34;1.55;;;1.00;;
60318;SDS011;46163;52.306;5.634;2023-08-08T09:33:00;2.17;;;0.90;;
60318;SDS011;46163;52.306;5.634;2023-08-08T09:35:28;1.33;;;0.90;;
60318;SDS011;46163;52.306;5.634;2023-08-08T09:37:54;1.13;;;0.90;;
60318;SDS011;46163;52.306;5.634;2023-08-08T09:42:50;0.65;;;0.63;;
60318;SDS011;46163;52.306;5.634;2023-08-08T09:45:16;0.90;;;0.90;;
60318;SDS011;46163;52.306;5.634;2023-08-08T09:47:42;2.00;;;0.75;;
60318;SDS011;46163;52.306;5.634;2023-08-08T09:50:10;4.18;;;0.98;;
60318;SDS011;46163;52.306;5.634;2023-08-08T09:52:35;0.80;;;0.80;;
60318;SDS011;46163;52.306;5.634;2023-08-08T09:55:04;1.63;;;0.70;;
60318;SDS011;46163;52.306;5.634;2023-08-08T09:57:32;0.65;;;0.65;;
60318;SDS011;46163;52.306;5.634;2023-08-08T09:59:58;1.63;;;1.08;;
60318;SDS011;46163;52.306;5.634;2023-08-08T10:02:25;0.85;;;0.70;;
60318;SDS011;46163;52.306;5.634;2023-08-08T10:04:50;1.30;;;0.80;;
60318;SDS011;46163;52.306;5.634;2023-08-08T10:07:20;0.85;;;0.85;;
60318;SDS011;46163;52.306;5.634;2023-08-08T10:12:13;0.88;;;0.88;;
60318;SDS011;46163;52.306;5.634;2023-08-08T10:14:41;1.10;;;0.63;;
60318;SDS011;46163;52.306;5.634;2023-08-08T10:17:07;1.30;;;1.20;;
60318;SDS011;46163;52.306;5.634;2023-08-08T10:19:33;0.70;;;0.70;;
60318;SDS011;46163;52.306;5.634;2023-08-08T10:22:03;1.17;;;0.98;;
60318;SDS011;46163;52.306;5.634;2023-08-08T10:24:36;0.98;;;0.98;;
60318;SDS011;46163;52.306;5.634;2023-08-08T10:27:04;1.00;;;0.90;;
60318;SDS011;46163;52.306;5.634;2023-08-08T10:29:30;2.50;;;1.30;;
60318;SDS011;46163;52.306;5.634;2023-08-08T10:31:58;1.15;;;0.50;;
60318;SDS011;46163;52.306;5.634;2023-08-08T10:37:13;0.93;;;0.70;;
60318;SDS011;46163;52.306;5.634;2023-08-08T10:39:50;0.70;;;0.70;;
60318;SDS011;46163;52.306;5.634;2023-08-08T10:42:19;1.02;;;0.82;;
60318;SDS011;46163;52.306;5.634;2023-08-08T10:44:57;0.70;;;0.70;;
60318;SDS011;46163;52.306;5.634;2023-08-08T10:47:24;1.85;;;0.80;;
60318;SDS011;46163;52.306;5.634;2023-08-08T10:55:24;0.85;;;0.85;;
60318;SDS011;46163;52.306;5.634;2023-08-08T10:57:55;0.95;;;0.55;;
60318;SDS011;46163;52.306;5.634;2023-08-08T11:00:23;0.70;;;0.70;;
60318;SDS011;46163;52.306;5.634;2023-08-08T11:02:53;1.27;;;0.93;;
60318;SDS011;46163;52.306;5.634;2023-08-08T11:05:22;1.08;;;0.98;;
60318;SDS011;46163;52.306;5.634;2023-08-08T11:07:48;0.80;;;0.80;;
60318;SDS011;46163;52.306;5.634;2023-08-08T11:10:13;7.80;;;0.90;;
60318;SDS011;46163;52.306;5.634;2023-08-08T11:12:39;8.18;;;1.25;;
60318;SDS011;46163;52.306;5.634;2023-08-08T11:15:05;1.23;;;1.00;;
60318;SDS011;46163;52.306;5.634;2023-08-08T11:17:32;1.65;;;0.95;;
60318;SDS011;46163;52.306;5.634;2023-08-08T11:19:58;0.60;;;0.60;;
60318;SDS011;46163;52.306;5.634;2023-08-08T11:22:23;1.00;;;1.00;;
60318;SDS011;46163;52.306;5.634;2023-08-08T11:24:49;0.90;;;0.85;;
60318;SDS011;46163;52.306;5.634;2023-08-08T11:27:16;1.60;;;0.80;;
60318;SDS011;46163;52.306;5.634;2023-08-08T11:29:48;1.13;;;1.00;;
60318;SDS011;46163;52.306;5.634;2023-08-08T11:32:15;1.38;;;0.80;;
60318;SDS011;46163;52.306;5.634;2023-08-08T11:34:41;1.45;;;0.90;;
60318;SDS011;46163;52.306;5.634;2023-08-08T11:37:07;4.40;;;1.30;;
60318;SDS011;46163;52.306;5.634;2023-08-08T11:39:34;2.67;;;1.15;;
60318;SDS011;46163;52.306;5.634;2023-08-08T11:42:00;1.17;;;0.93;;
60318;SDS011;46163;52.306;5.634;2023-08-08T11:44:26;1.95;;;1.33;;
60318;SDS011;46163;52.306;5.634;2023-08-08T11:46:54;1.30;;;1.20;;
60318;SDS011;46163;52.306;5.634;2023-08-08T11:51:45;1.80;;;1.00;;
60318;SDS011;46163;52.306;5.634;2023-08-08T11:54:11;1.65;;;1.55;;
60318;SDS011;46163;52.306;5.634;2023-08-08T11:56:37;1.55;;;1.20;;
60318;SDS011;46163;52.306;5.634;2023-08-08T11:59:03;1.40;;;0.95;;
60318;SDS011;46163;52.306;5.634;2023-08-08T12:01:33;1.85;;;1.17;;
60318;SDS011;46163;52.306;5.634;2023-08-08T12:04:07;1.27;;;0.98;;
60318;SDS011;46163;52.306;5.634;2023-08-08T12:06:36;2.08;;;1.52;;
60318;SDS011;46163;52.306;5.634;2023-08-08T12:09:04;1.58;;;1.30;;
60318;SDS011;46163;52.306;5.634;2023-08-08T12:11:33;0.87;;;0.87;;
60318;SDS011;46163;52.306;5.634;2023-08-08T12:14:00;28.63;;;3.10;;
60318;SDS011;46163;52.306;5.634;2023-08-08T12:16:27;0.93;;;0.82;;
60318;SDS011;46163;52.306;5.634;2023-08-08T12:18:57;0.77;;;0.77;;
60318;SDS011;46163;52.306;5.634;2023-08-08T12:21:26;1.00;;;0.85;;
60318;SDS011;46163;52.306;5.634;2023-08-08T12:23:51;1.63;;;1.10;;
60318;SDS011;46163;52.306;5.634;2023-08-08T12:26:17;1.23;;;1.05;;
60318;SDS011;46163;52.306;5.634;2023-08-08T12:28:43;1.60;;;1.00;;
60318;SDS011;46163;52.306;5.634;2023-08-08T12:31:09;1.98;;;0.82;;
60318;SDS011;46163;52.306;5.634;2023-08-08T12:33:35;3.03;;;1.10;;
60318;SDS011;46163;52.306;5.634;2023-08-08T12:36:00;1.17;;;0.93;;
60318;SDS011;46163;52.306;5.634;2023-08-08T12:38:26;2.80;;;0.93;;
60318;SDS011;46163;52.306;5.634;2023-08-08T12:40:51;1.15;;;0.85;;
60318;SDS011;46163;52.306;5.634;2023-08-08T12:43:19;1.92;;;1.02;;
60318;SDS011;46163;52.306;5.634;2023-08-08T12:45:45;0.90;;;0.90;;
60318;SDS011;46163;52.306;5.634;2023-08-08T12:48:11;1.00;;;1.00;;
60318;SDS011;46163;52.306;5.634;2023-08-08T12:50:38;0.85;;;0.77;;
60318;SDS011;46163;52.306;5.634;2023-08-08T12:53:04;0.90;;;0.90;;
60318;SDS011;46163;52.306;5.634;2023-08-08T12:55:30;3.92;;;1.40;;
60318;SDS011;46163;52.306;5.634;2023-08-08T12:57:56;1.33;;;1.20;;
60318;SDS011;46163;52.306;5.634;2023-08-08T13:00:21;1.05;;;1.05;;
60318;SDS011;46163;52.306;5.634;2023-08-08T13:02:47;1.98;;;1.23;;
60318;SDS011;46163;52.306;5.634;2023-08-08T13:05:13;1.02;;;0.90;;
60318;SDS011;46163;52.306;5.634;2023-08-08T13:07:38;3.63;;;1.00;;
60318;SDS011;46163;52.306;5.634;2023-08-08T13:10:04;2.80;;;1.10;;
60318;SDS011;46163;52.306;5.634;2023-08-08T13:12:30;2.50;;;0.90;;
60318;SDS011;46163;52.306;5.634;2023-08-08T13:14:56;5.63;;;1.30;;
60318;SDS011;46163;52.306;5.634;2023-08-08T13:17:21;0.70;;;0.70;;
60318;SDS011;46163;52.306;5.634;2023-08-08T13:19:47;0.68;;;0.68;;
60318;SDS011;46163;52.306;5.634;2023-08-08T13:22:15;0.80;;;0.80;;
60318;SDS011;46163;52.306;5.634;2023-08-08T13:24:40;1.42;;;0.85;;
60318;SDS011;46163;52.306;5.634;2023-08-08T13:27:06;1.08;;;1.00;;
60318;SDS011;46163;52.306;5.634;2023-08-08T13:29:31;0.90;;;0.88;;
60318;SDS011;46163;52.306;5.634;2023-08-08T13:31:57;1.17;;;0.90;;
60318;SDS011;46163;52.306;5.634;2023-08-08T13:34:23;5.43;;;1.17;;
60318;SDS011;46163;52.306;5.634;2023-08-08T13:36:48;1.45;;;1.20;;
60318;SDS011;46163;52.306;5.634;2023-08-08T13:39:14;5.90;;;1.08;;
60318;SDS011;46163;52.306;5.634;2023-08-08T13:41:39;0.77;;;0.70;;
60318;SDS011;46163;52.306;5.634;2023-08-08T13:44:05;1.38;;;0.98;;
60318;SDS011;46163;52.306;5.634;2023-08-08T13:46:31;1.75;;;1.05;;
60318;SDS011;46163;52.306;5.634;2023-08-08T13:48:56;1.23;;;0.82;;
60318;SDS011;46163;52.306;5.634;2023-08-08T13:51:22;1.42;;;1.10;;
60318;SDS011;46163;52.306;5.634;2023-08-08T13:53:48;2.15;;;1.00;;
60318;SDS011;46163;52.306;5.634;2023-08-08T13:56:17;1.58;;;0.98;;
60318;SDS011;46163;52.306;5.634;2023-08-08T13:58:42;1.08;;;0.93;;
60318;SDS011;46163;52.306;5.634;2023-08-08T14:01:08;1.58;;;1.02;;
60318;SDS011;46163;52.306;5.634;2023-08-08T14:03:34;1.00;;;1.00;;
60318;SDS011;46163;52.306;5.634;2023-08-08T14:05:59;0.98;;;0.98;;
60318;SDS011;46163;52.306;5.634;2023-08-08T14:08:25;0.93;;;0.93;;
60318;SDS011;46163;52.306;5.634;2023-08-08T14:10:50;0.73;;;0.73;;
60318;SDS011;46163;52.306;5.634;2023-08-08T14:13:16;1.38;;;1.20;;
60318;SDS011;46163;52.306;5.634;2023-08-08T14:15:44;0.95;;;0.82;;
60318;SDS011;46163;52.306;5.634;2023-08-08T14:18:09;4.40;;;0.90;;
60318;SDS011;46163;52.306;5.634;2023-08-08T14:20:36;1.92;;;1.23;;
60318;SDS011;46163;52.306;5.634;2023-08-08T14:23:01;1.42;;;1.20;;
60318;SDS011;46163;52.306;5.634;2023-08-08T14:25:27;1.85;;;1.17;;
60318;SDS011;46163;52.306;5.634;2023-08-08T14:27:54;1.65;;;1.20;;
60318;SDS011;46163;52.306;5.634;2023-08-08T14:30:21;2.10;;;1.45;;
60318;SDS011;46163;52.306;5.634;2023-08-08T14:32:48;1.17;;;1.13;;
60318;SDS011;46163;52.306;5.634;2023-08-08T14:35:13;3.65;;;1.38;;
60318;SDS011;46163;52.306;5.634;2023-08-08T14:37:39;1.80;;;1.10;;
60318;SDS011;46163;52.306;5.634;2023-08-08T14:40:05;1.75;;;0.95;;
60318;SDS011;46163;52.306;5.634;2023-08-08T14:42:31;2.33;;;1.17;;
60318;SDS011;46163;52.306;5.634;2023-08-08T14:44:57;1.00;;;1.00;;
60318;SDS011;46163;52.306;5.634;2023-08-08T14:47:23;3.40;;;1.48;;
60318;SDS011;46163;52.306;5.634;2023-08-08T14:49:48;2.03;;;1.20;;
60318;SDS011;46163;52.306;5.634;2023-08-08T14:52:16;0.87;;;0.87;;
60318;SDS011;46163;52.306;5.634;2023-08-08T14:54:42;0.85;;;0.85;;
60318;SDS011;46163;52.306;5.634;2023-08-08T14:57:08;1.08;;;1.00;;
60318;SDS011;46163;52.306;5.634;2023-08-08T14:59:33;1.23;;;1.13;;
60318;SDS011;46163;52.306;5.634;2023-08-08T15:01:59;6.65;;;1.08;;
60318;SDS011;46163;52.306;5.634;2023-08-08T15:04:25;1.20;;;1.10;;
60318;SDS011;46163;52.306;5.634;2023-08-08T15:06:51;2.80;;;1.40;;
60318;SDS011;46163;52.306;5.634;2023-08-08T15:09:17;1.58;;;1.20;;